Archiv-/Tagesdaten

--Timestamp---	Temp	Chill	HIndex	Humid	Dewpt	Wind	HiWind	WindDir	Rain	Barom	        Solar	ET	UV
--------------	----	-----	------	-----	-----	----	------	-------	----	-----	        -----	--	--
20090209 00:05	-0.9	-0.9	-0.9	75	-4.8	2	3	292	0.00	1010.874	0	0.000	0
20090209 00:10	-0.9	-0.9	-0.9	75	-4.8	2	5	292	0.00	1010.975	0	0.000	0
20090209 00:15	-0.9	-0.9	-0.9	75	-4.8	2	5	292	0.00	1010.941	0	0.000	0
20090209 00:20	-1.0	-1.0	-1.0	76	-4.7	0	3	292	0.00	1010.908	0	0.000	0
20090209 00:25	-1.0	-1.0	-1.0	77	-4.5	0	3	292	0.00	1010.840	0	0.000	0
20090209 00:30	-1.0	-1.0	-1.0	77	-4.5	0	3	292	0.00	1010.874	0	0.000	0
20090209 00:35	-1.0	-1.0	-1.0	77	-4.5	0	2	292	0.00	1010.840	0	0.000	0
20090209 00:40	-0.9	-0.9	-0.9	78	-4.3	2	3	292	0.00	1010.806	0	0.000	0
20090209 00:45	-0.9	-0.9	-0.9	78	-4.3	2	5	292	0.00	1010.772	0	0.000	0
20090209 00:50	-0.8	-0.8	-0.8	77	-4.4	3	6	315	0.00	1010.772	0	0.000	0
20090209 00:55	-0.8	-0.8	-0.8	76	-4.5	5	8	292	0.00	1010.704	0	0.000	0
20090209 01:00	-0.8	-0.8	-0.8	77	-4.4	5	8	315	0.00	1010.806	0	0.000	0
20090209 01:05	-0.9	-0.9	-0.9	78	-4.2	3	8	315	0.00	1010.738	0	0.000	0
20090209 01:10	-0.9	-0.9	-0.9	78	-4.2	3	6	315	0.00	1010.704	0	0.000	0
20090209 01:15	-0.9	-0.9	-0.9	77	-4.5	0	3	315	0.00	1010.738	0	0.000	0
20090209 01:20	-1.0	-1.0	-1.0	78	-4.3	2	6	225	0.00	1010.806	0	0.000	0
20090209 01:25	-1.0	-1.0	-1.0	79	-4.2	2	8	225	0.00	1010.874	0	0.000	0
20090209 01:30	-1.1	-1.1	-1.1	80	-4.1	3	8	247	0.00	1010.975	0	0.000	0
20090209 01:35	-1.1	-1.1	-1.1	81	-3.9	2	6	225	0.00	1011.009	0	0.000	0
20090209 01:40	-1.2	-1.2	-1.2	83	-3.7	2	6	247	0.00	1011.009	0	0.000	0
20090209 01:45	-1.2	-1.2	-1.2	83	-3.7	3	8	247	0.00	1010.975	0	0.000	0
20090209 01:50	-1.2	-1.2	-1.2	84	-3.6	3	6	270	0.00	1011.009	0	0.000	0
20090209 01:55	-1.2	-1.2	-1.2	84	-3.6	3	6	247	0.00	1010.975	0	0.000	0
20090209 02:00	-1.2	-1.2	-1.2	83	-3.7	2	6	225	0.00	1010.941	0	0.000	0
20090209 02:05	-1.2	-1.2	-1.2	83	-3.7	0	0	225	0.00	1010.874	0	0.000	0
20090209 02:10	-1.2	-1.2	-1.2	83	-3.7	0	0	225	0.00	1010.840	0	0.000	0
20090209 02:15	-1.2	-1.2	-1.2	83	-3.7	2	3	225	0.00	1010.840	0	0.000	0
20090209 02:20	-1.3	-1.3	-1.3	84	-3.6	3	6	225	0.00	1010.908	0	0.000	0
20090209 02:25	-1.4	-1.4	-1.4	85	-3.6	2	8	225	0.00	1010.941	0	0.000	0
20090209 02:30	-1.5	-1.5	-1.5	85	-3.7	5	10	225	0.00	1010.975	0	0.000	0
20090209 02:35	-1.6	-1.6	-1.6	85	-3.7	3	8	225	0.00	1010.908	0	0.000	0
20090209 02:40	-1.7	-1.7	-1.7	86	-3.7	2	5	225	0.00	1010.908	0	0.000	0
20090209 02:45	-1.8	-1.8	-1.8	86	-3.8	3	6	225	0.00	1010.975	0	0.000	0
20090209 02:50	-1.8	-1.8	-1.8	87	-3.7	2	5	225	0.00	1010.975	0	0.000	0
20090209 02:55	-1.8	-1.8	-1.8	87	-3.7	2	5	225	0.00	1010.941	0	0.000	0
20090209 03:00	-1.8	-1.8	-1.8	87	-3.7	2	5	225	0.00	1011.009	0	0.000	0
20090209 03:05	-1.8	-1.8	-1.8	87	-3.7	0	3	225	0.00	1011.009	0	0.000	0
20090209 03:10	-1.7	-1.7	-1.7	87	-3.6	2	5	225	0.00	1011.009	0	0.000	0
20090209 03:15	-1.7	-1.7	-1.7	87	-3.5	0	3	225	0.00	1010.908	0	0.000	0
20090209 03:20	-1.7	-1.7	-1.7	87	-3.5	0	0	225	0.00	1010.874	0	0.000	0
20090209 03:25	-1.7	-1.7	-1.7	87	-3.5	0	2	225	0.00	1010.975	0	0.000	0
20090209 03:30	-1.7	-1.7	-1.7	87	-3.6	0	0	225	0.00	1011.077	0	0.000	0
20090209 03:35	-1.8	-1.8	-1.8	87	-3.7	0	2	225	0.00	1011.111	0	0.000	0
20090209 03:40	-1.8	-1.8	-1.8	87	-3.7	0	2	225	0.00	1011.111	0	0.000	0
20090209 03:45	-1.9	-1.9	-1.9	87	-3.8	0	5	225	0.00	1011.145	0	0.000	0
20090209 03:50	-1.9	-1.9	-1.9	87	-3.8	2	5	225	0.00	1011.179	0	0.000	0
20090209 03:55	-1.9	-1.9	-1.9	87	-3.8	2	5	225	0.00	1011.179	0	0.000	0
20090209 04:00	-2.0	-2.0	-2.0	88	-3.7	2	5	225	0.00	1011.179	0	0.000	0
20090209 04:05	-2.1	-2.1	-2.1	88	-3.8	2	5	225	0.00	1011.314	0	0.000	0
20090209 04:10	-2.1	-2.1	-2.1	88	-3.8	0	3	225	0.00	1011.212	0	0.000	0
20090209 04:15	-2.2	-2.2	-2.2	88	-3.9	0	5	225	0.00	1011.314	0	0.000	0
20090209 04:20	-2.2	-2.2	-2.2	89	-3.7	0	3	225	0.00	1011.314	0	0.000	0
20090209 04:25	-2.2	-2.2	-2.2	89	-3.8	0	3	225	0.00	1011.348	0	0.000	0
20090209 04:30	-2.2	-2.2	-2.2	89	-3.8	0	2	225	0.00	1011.348	0	0.000	0
20090209 04:35	-2.3	-2.3	-2.3	89	-3.8	2	5	225	0.00	1011.382	0	0.000	0
20090209 04:40	-2.3	-2.3	-2.3	89	-3.8	2	6	225	0.00	1011.382	0	0.000	0
20090209 04:45	-2.3	-2.3	-2.3	89	-3.8	2	5	225	0.00	1011.212	0	0.000	0
20090209 04:50	-2.2	-2.2	-2.2	89	-3.8	0	3	225	0.00	1011.179	0	0.000	0
20090209 04:55	-2.2	-2.2	-2.2	89	-3.8	0	3	225	0.00	1011.179	0	0.000	0
20090209 05:00	-2.2	-2.2	-2.2	89	-3.7	0	2	225	0.00	1011.179	0	0.000	0
20090209 05:05	-2.2	-2.2	-2.2	89	-3.7	0	5	225	0.00	1011.212	0	0.000	0
20090209 05:10	-2.1	-2.1	-2.1	89	-3.7	0	3	225	0.00	1011.246	0	0.000	0
20090209 05:15	-2.1	-2.1	-2.1	89	-3.6	0	0	225	0.00	1011.246	0	0.000	0
20090209 05:20	-2.0	-2.0	-2.0	89	-3.6	2	5	225	0.00	1011.179	0	0.000	0
20090209 05:25	-1.9	-1.9	-1.9	89	-3.5	0	3	225	0.00	1011.077	0	0.000	0
20090209 05:30	-1.8	-1.8	-1.8	89	-3.4	2	3	225	0.00	1011.009	0	0.000	0
20090209 05:35	-1.8	-1.8	-1.8	89	-3.4	2	3	225	0.00	1011.009	0	0.000	0
20090209 05:40	-1.8	-1.8	-1.8	89	-3.3	0	3	225	0.00	1011.009	0	0.000	0
20090209 05:45	-1.8	-1.8	-1.8	89	-3.3	2	5	225	0.00	1011.077	0	0.000	0
20090209 05:50	-1.7	-1.7	-1.7	89	-3.3	3	6	225	0.00	1011.212	0	0.000	0
20090209 05:55	-1.7	-1.7	-1.7	89	-3.3	2	6	225	0.00	1011.179	0	0.000	0
20090209 06:00	-1.7	-1.7	-1.7	89	-3.3	2	5	225	0.00	1011.246	0	0.000	0
20090209 06:05	-1.7	-1.7	-1.7	89	-3.2	2	6	225	0.00	1011.246	0	0.000	0
20090209 06:10	-1.7	-1.7	-1.7	89	-3.2	2	5	225	0.00	1011.280	0	0.000	0
20090209 06:15	-1.6	-1.6	-1.6	89	-3.2	2	6	225	0.00	1011.314	0	0.000	0
20090209 06:20	-1.6	-1.6	-1.6	88	-3.3	3	6	225	0.00	1011.348	0	0.000	0
20090209 06:25	-1.6	-1.6	-1.6	88	-3.3	3	8	225	0.00	1011.382	0	0.000	0
20090209 06:30	-1.6	-1.6	-1.6	88	-3.3	3	8	225	0.00	1011.382	0	0.000	0
20090209 06:35	-1.6	-1.6	-1.6	88	-3.3	2	5	225	0.00	1011.416	0	0.000	0
20090209 06:40	-1.6	-1.6	-1.6	88	-3.3	3	6	225	0.00	1011.449	0	0.000	0
20090209 06:45	-1.6	-1.6	-1.6	88	-3.3	3	6	225	0.00	1011.517	0	0.000	0
20090209 06:50	-1.6	-1.6	-1.6	87	-3.5	2	8	225	0.00	1011.483	0	0.000	0
20090209 06:55	-1.6	-1.6	-1.6	87	-3.5	2	6	225	0.00	1011.483	0	0.000	0
20090209 07:00	-1.7	-1.7	-1.7	87	-3.5	3	6	225	0.00	1011.517	0	0.000	0
20090209 07:05	-1.7	-1.7	-1.7	86	-3.7	3	8	225	0.00	1011.585	0	0.000	0
20090209 07:10	-1.7	-1.7	-1.7	86	-3.8	2	6	225	0.00	1011.619	0	0.000	0
20090209 07:15	-1.7	-1.7	-1.7	86	-3.8	2	5	225	0.00	1011.720	0	0.000	0
20090209 07:20	-1.7	-1.7	-1.7	86	-3.8	2	8	225	0.00	1011.720	0	0.000	0
20090209 07:25	-1.7	-1.7	-1.7	86	-3.8	2	6	225	0.00	1011.720	0	0.000	0
20090209 07:30	-1.7	-1.7	-1.7	86	-3.8	3	5	225	0.00	1011.788	0	0.000	0
20090209 07:35	-1.8	-1.8	-1.8	86	-3.8	2	6	225	0.00	1011.856	1	0.000	0
20090209 07:40	-1.8	-1.8	-1.8	86	-3.8	2	5	225	0.00	1011.924	5	0.000	0
20090209 07:45	-1.8	-1.8	-1.8	86	-3.8	2	6	225	0.00	1011.957	8	0.000	0
20090209 07:50	-1.8	-1.8	-1.8	86	-3.8	3	6	225	0.00	1012.025	11	0.000	0
20090209 07:55	-1.8	-1.8	-1.8	86	-3.9	3	6	225	0.00	1012.025	14	0.000	0
20090209 08:00	-1.9	-1.9	-1.9	86	-3.9	3	6	225	0.00	1012.025	16	0.000	0
20090209 08:05	-1.9	-1.9	-1.9	86	-4.0	2	6	225	0.00	1011.890	18	0.000	0
20090209 08:10	-1.9	-1.9	-1.9	86	-4.0	2	6	225	0.00	1011.957	20	0.000	0
20090209 08:15	-2.0	-2.0	-2.0	86	-4.0	2	5	225	0.00	1012.059	24	0.000	0
20090209 08:20	-2.0	-2.0	-2.0	86	-4.0	2	6	225	0.00	1012.059	22	0.000	0
20090209 08:25	-2.0	-2.0	-2.0	86	-4.0	0	5	225	0.00	1011.991	22	0.000	0
20090209 08:30	-2.0	-2.0	-2.0	86	-4.0	0	2	225	0.00	1011.957	27	0.000	0
20090209 08:35	-2.0	-2.0	-2.0	86	-4.0	0	3	225	0.00	1011.957	29	0.000	0
20090209 08:40	-1.9	-1.9	-1.9	86	-4.0	0	2	225	0.00	1012.025	32	0.000	0
20090209 08:45	-1.9	-1.9	-1.9	86	-3.9	0	3	225	0.00	1011.856	34	0.000	0
20090209 08:50	-1.8	-1.8	-1.8	86	-3.9	0	5	225	0.00	1011.890	36	0.000	0
20090209 08:55	-1.8	-1.8	-1.8	86	-3.8	2	6	225	0.00	1011.957	44	0.000	0
20090209 09:00	-1.7	-1.7	-1.7	85	-3.9	3	6	225	0.00	1011.856	56	0.000	0
20090209 09:05	-1.6	-1.6	-1.6	85	-3.7	3	6	225	0.00	1012.059	59	0.000	0
20090209 09:10	-1.4	-1.4	-1.4	84	-3.8	5	14	225	0.00	1012.093	76	0.000	0
20090209 09:15	-1.4	-1.4	-1.4	84	-3.8	5	10	225	0.00	1012.161	76	0.000	0
20090209 09:20	-1.3	-1.3	-1.3	84	-3.7	3	11	202	0.00	1011.991	105	0.000	0
20090209 09:25	-1.2	-1.2	-1.2	83	-3.7	2	8	180	0.00	1011.856	97	0.000	0
20090209 09:30	-1.1	-1.1	-1.1	83	-3.6	0	3	225	0.00	1011.890	102	0.000	0
20090209 09:35	-0.9	-0.9	-0.9	83	-3.5	0	5	180	0.00	1011.924	92	0.000	0
20090209 09:40	-0.8	-0.8	-0.8	81	-3.7	3	6	247	0.00	1011.957	89	0.000	0
20090209 09:45	-0.8	-0.8	-0.8	81	-3.6	0	6	247	0.00	1011.957	107	0.000	0
20090209 09:50	-0.7	-0.7	-0.7	81	-3.5	0	3	157	0.00	1012.059	121	0.000	0
20090209 09:55	-0.6	-0.6	-0.6	81	-3.5	0	5	157	0.00	1012.093	59	0.000	0
20090209 10:00	-0.5	-0.5	-0.5	81	-3.4	0	5	157	0.00	1012.228	50	0.020	0
20090209 10:05	-0.3	-0.3	-0.3	80	-3.4	2	6	157	0.00	1012.262	49	0.000	0
20090209 10:10	-0.2	-0.2	-0.2	78	-3.6	3	6	225	0.00	1012.194	52	0.000	0
20090209 10:15	-0.2	-0.2	-0.2	77	-3.7	3	10	202	0.00	1012.194	50	0.000	0
20090209 10:20	0.0	0.0	0.0	76	-3.7	3	11	225	0.00	1012.194	50	0.000	0
20090209 10:25	0.1	0.1	0.1	76	-3.6	5	10	202	0.00	1012.093	50	0.000	0
20090209 10:30	0.2	-2.0	0.2	75	-3.7	6	11	202	0.00	1012.194	50	0.000	0
20090209 10:35	0.3	0.3	0.3	75	-3.6	5	10	225	0.00	1012.194	51	0.000	0
20090209 10:40	0.3	-1.8	0.3	74	-3.8	6	16	225	0.00	1012.161	51	0.000	0
20090209 10:45	0.5	0.5	0.5	74	-3.6	5	11	225	0.00	1012.228	53	0.000	0
20090209 10:50	0.7	0.7	0.7	74	-3.4	5	11	225	0.00	1012.228	56	0.000	0
20090209 10:55	0.8	0.8	0.8	73	-3.5	5	10	225	0.00	1012.228	57	0.000	1
20090209 11:00	0.8	0.8	0.8	73	-3.5	5	11	180	0.00	1012.025	61	0.020	1
20090209 11:05	0.9	0.9	0.9	73	-3.3	5	10	225	0.00	1011.957	149	0.000	1
20090209 11:10	1.1	1.1	1.1	72	-3.4	3	10	202	0.00	1011.991	386	0.000	1
20090209 11:15	1.3	1.3	1.3	70	-3.5	5	11	202	0.00	1011.957	397	0.000	1
20090209 11:20	1.4	1.4	1.4	71	-3.2	5	14	225	0.00	1011.957	399	0.000	1
20090209 11:25	1.6	1.6	1.6	70	-3.3	3	10	180	0.00	1011.957	402	0.000	1
20090209 11:30	1.7	1.7	1.7	69	-3.3	5	14	202	0.00	1011.890	414	0.000	1
20090209 11:35	1.8	1.8	1.8	69	-3.3	5	14	202	0.00	1011.957	417	0.000	1
20090209 11:40	1.9	1.9	1.9	69	-3.1	5	13	225	0.00	1011.754	421	0.000	1
20090209 11:45	2.0	2.0	2.0	68	-3.3	5	11	180	0.00	1011.720	433	0.000	1
20090209 11:50	2.2	2.2	2.2	69	-2.9	2	6	247	0.00	1011.619	487	0.000	1
20090209 11:55	2.2	2.2	2.2	67	-3.3	3	11	202	0.00	1011.653	307	0.000	1
20090209 12:00	2.3	2.3	2.3	67	-3.2	2	8	202	0.00	1011.653	405	0.120	1
20090209 12:05	2.3	2.3	2.3	67	-3.2	2	6	247	0.00	1011.517	311	0.000	1
20090209 12:10	2.2	2.2	2.2	66	-3.5	5	11	202	0.00	1011.483	248	0.000	1
20090209 12:15	2.2	2.2	2.2	67	-3.3	3	8	225	0.00	1011.449	314	0.000	1
20090209 12:20	2.2	2.2	2.2	67	-3.3	5	10	225	0.00	1011.517	223	0.000	1
20090209 12:25	2.2	2.2	2.2	67	-3.3	3	10	202	0.00	1011.449	394	0.000	1
20090209 12:30	2.4	2.4	2.4	68	-2.9	3	8	157	0.00	1011.449	456	0.000	2
20090209 12:35	2.8	2.8	2.8	67	-2.7	3	14	202	0.00	1011.246	462	0.000	2
20090209 12:40	3.0	3.0	3.0	65	-2.9	3	11	180	0.00	1011.348	480	0.000	2
20090209 12:45	3.0	3.0	3.0	65	-2.9	2	6	180	0.00	1011.314	417	0.000	1
20090209 12:50	2.9	2.9	2.9	66	-2.8	2	6	225	0.00	1011.280	218	0.000	1
20090209 12:55	2.7	2.7	2.7	65	-3.2	5	10	202	0.00	1011.246	255	0.000	1
20090209 13:00	2.7	2.7	2.7	66	-3.0	2	8	180	0.00	1011.212	230	0.100	1
20090209 13:05	2.6	0.8	2.6	67	-2.9	6	14	202	0.00	1011.179	199	0.000	1
20090209 13:10	2.6	2.6	2.6	67	-2.9	3	10	180	0.00	1011.179	220	0.000	1
20090209 13:15	2.6	2.6	2.6	67	-2.9	5	11	202	0.00	1011.179	224	0.000	1
20090209 13:20	2.6	2.6	2.6	68	-2.7	5	16	247	0.00	1011.280	169	0.000	1
20090209 13:25	2.6	2.6	2.6	67	-2.9	5	14	225	0.00	1011.043	152	0.000	1
20090209 13:30	2.5	0.7	2.5	68	-2.8	6	11	202	0.00	1011.077	189	0.000	1
20090209 13:35	2.5	2.5	2.5	68	-2.8	5	11	225	0.00	1010.975	199	0.000	1
20090209 13:40	2.6	2.6	2.6	69	-2.6	5	14	202	0.00	1010.975	184	0.000	1
20090209 13:45	2.6	0.8	2.6	68	-2.7	6	18	202	0.00	1010.975	227	0.000	1
20090209 13:50	2.7	0.9	2.7	68	-2.6	6	16	247	0.00	1011.009	252	0.000	1
20090209 13:55	2.8	1.1	2.8	68	-2.5	6	16	225	0.00	1010.941	250	0.000	1
20090209 14:00	3.0	0.8	3.0	66	-2.7	8	26	225	0.00	1010.908	259	0.080	1
20090209 14:05	2.9	0.7	2.9	64	-3.2	8	16	247	0.00	1010.941	238	0.000	1
20090209 14:10	2.7	0.5	2.7	65	-3.2	8	18	247	0.00	1011.077	147	0.000	0
20090209 14:15	2.4	0.6	2.4	67	-3.1	6	14	247	0.00	1011.009	148	0.000	0
20090209 14:20	2.4	2.4	2.4	67	-3.1	5	11	225	0.00	1011.043	222	0.000	1
20090209 14:25	2.4	2.4	2.4	67	-3.1	5	10	247	0.00	1010.975	204	0.000	1
20090209 14:30	2.6	0.8	2.6	66	-3.1	6	14	247	0.00	1010.738	111	0.000	1
20090209 14:35	2.6	0.8	2.6	65	-3.3	6	18	247	0.00	1010.772	118	0.000	0
20090209 14:40	2.4	-0.3	2.4	70	-2.5	10	27	247	0.00	1010.806	127	0.000	0
20090209 14:45	2.2	0.3	2.2	73	-2.2	6	16	270	0.00	1010.806	118	0.000	0
20090209 14:50	2.1	-0.3	2.1	71	-2.6	8	16	247	0.00	1010.908	95	0.000	0
20090209 14:55	2.2	-0.2	2.2	69	-2.9	8	16	247	0.00	1010.806	86	0.000	0
20090209 15:00	2.1	-0.3	2.1	71	-2.6	8	19	247	0.00	1010.806	79	0.060	0
20090209 15:05	1.7	-1.2	1.7	77	-1.9	10	19	247	0.00	1011.145	131	0.000	0
20090209 15:10	1.3	-1.2	1.3	81	-1.6	8	18	247	0.00	1010.975	124	0.000	0
20090209 15:15	1.1	-0.9	1.1	82	-1.6	6	13	247	0.00	1010.874	84	0.000	0
20090209 15:20	1.1	1.1	1.1	82	-1.7	5	10	247	0.00	1010.840	59	0.000	0
20090209 15:25	1.1	1.1	1.1	82	-1.6	3	8	247	0.00	1010.738	70	0.000	0
20090209 15:30	1.2	1.2	1.2	81	-1.7	3	8	247	0.00	1010.569	83	0.000	0
20090209 15:35	1.3	1.3	1.3	81	-1.6	3	6	270	0.00	1010.433	59	0.000	0
20090209 15:40	1.3	1.3	1.3	81	-1.6	3	8	225	0.00	1010.264	63	0.000	0
20090209 15:45	1.3	1.3	1.3	81	-1.6	2	5	225	0.00	1010.264	60	0.000	0
20090209 15:50	1.3	1.3	1.3	80	-1.7	2	5	225	0.00	1010.230	45	0.000	0
20090209 15:55	1.3	1.3	1.3	80	-1.7	0	3	225	0.00	1010.230	66	0.000	0
20090209 16:00	1.3	1.3	1.3	79	-1.9	3	6	270	0.00	1010.196	49	0.020	0
20090209 16:05	1.3	1.3	1.3	79	-1.9	3	6	270	0.00	1010.196	38	0.000	0
20090209 16:10	1.4	1.4	1.4	80	-1.7	2	5	270	0.00	1010.196	29	0.000	0
20090209 16:15	1.4	1.4	1.4	79	-1.8	2	6	270	0.00	1010.163	28	0.000	0
20090209 16:20	1.3	1.3	1.3	78	-2.1	2	6	270	0.00	1010.095	26	0.000	0
20090209 16:25	1.4	1.4	1.4	78	-2.0	2	5	247	0.00	1010.061	36	0.000	0
20090209 16:30	1.4	1.4	1.4	78	-2.0	2	6	247	0.00	1010.129	37	0.000	0
20090209 16:35	1.5	1.5	1.5	77	-2.1	2	6	247	0.00	1009.959	31	0.000	0
20090209 16:40	1.6	1.6	1.6	77	-2.0	2	5	247	0.00	1009.926	27	0.000	0
20090209 16:45	1.6	1.6	1.6	77	-2.0	0	3	247	0.00	1009.993	20	0.000	0
20090209 16:50	1.6	1.6	1.6	77	-2.0	0	3	247	0.00	1009.959	13	0.000	0
20090209 16:55	1.6	1.6	1.6	77	-2.0	0	2	247	0.00	1009.790	8	0.000	0
20090209 17:00	1.6	1.6	1.6	78	-1.8	2	5	247	0.00	1009.790	6	0.020	0
20090209 17:05	1.6	1.6	1.6	79	-1.6	0	2	247	0.00	1009.655	5	0.000	0
20090209 17:10	1.6	1.6	1.6	79	-1.7	0	2	247	0.00	1009.621	6	0.000	0
20090209 17:15	1.5	1.5	1.5	79	-1.7	0	5	247	0.00	1009.655	6	0.000	0
20090209 17:20	1.5	1.5	1.5	79	-1.7	0	5	157	0.00	1009.519	3	0.000	0
20090209 17:25	1.5	1.5	1.5	79	-1.7	0	2	157	0.00	1009.451	0	0.000	0
20090209 17:30	1.4	1.4	1.4	80	-1.6	0	2	157	0.00	1009.316	0	0.000	0
20090209 17:35	1.4	1.4	1.4	79	-1.8	0	2	157	0.00	1009.214	0	0.000	0
20090209 17:40	1.4	1.4	1.4	80	-1.6	0	3	157	0.00	1009.079	0	0.000	0
20090209 17:45	1.3	1.3	1.3	80	-1.7	0	3	157	0.00	1009.045	0	0.000	0
20090209 17:50	1.3	1.3	1.3	81	-1.6	0	3	157	0.00	1009.045	0	0.000	0
20090209 17:55	1.1	1.1	1.1	82	-1.6	0	2	157	0.00	1008.977	0	0.000	0
20090209 18:00	1.0	1.0	1.0	83	-1.6	0	2	157	0.00	1008.910	0	0.000	0
20090209 18:05	0.9	0.9	0.9	83	-1.7	2	5	157	0.00	1008.910	0	0.000	0
20090209 18:10	0.8	0.8	0.8	84	-1.6	2	5	157	0.00	1008.977	0	0.000	0
20090209 18:15	0.7	0.7	0.7	84	-1.7	2	3	157	0.00	1008.842	0	0.000	0
20090209 18:20	0.6	0.6	0.6	85	-1.6	0	5	157	0.00	1008.842	0	0.000	0
20090209 18:25	0.6	0.6	0.6	85	-1.7	0	2	157	0.00	1008.876	0	0.000	0
20090209 18:30	0.4	0.4	0.4	85	-1.8	0	3	157	0.00	1008.876	0	0.000	0
20090209 18:35	0.4	0.4	0.4	86	-1.7	0	3	157	0.00	1008.808	0	0.000	0
20090209 18:40	0.3	0.3	0.3	86	-1.7	0	2	180	0.00	1008.774	0	0.000	0
20090209 18:45	0.3	0.3	0.3	86	-1.8	0	5	180	0.00	1008.639	0	0.000	0
20090209 18:50	0.3	0.3	0.3	86	-1.8	0	3	180	0.00	1008.639	0	0.000	0
20090209 18:55	0.2	0.2	0.2	86	-1.8	2	3	157	0.00	1008.605	0	0.000	0
20090209 19:00	0.2	0.2	0.2	86	-1.8	2	5	157	0.00	1008.740	0	0.000	0
20090209 19:05	0.2	0.2	0.2	86	-1.8	2	3	157	0.00	1008.605	0	0.000	0
20090209 19:10	0.2	0.2	0.2	86	-1.8	2	6	157	0.00	1008.503	0	0.000	0
20090209 19:15	0.2	0.2	0.2	85	-2.0	2	5	180	0.00	1008.503	0	0.000	0
20090209 19:20	0.2	0.2	0.2	85	-2.0	2	5	180	0.00	1008.469	0	0.000	0
20090209 19:25	0.2	0.2	0.2	85	-2.0	2	5	157	0.00	1008.402	0	0.000	0
20090209 19:30	0.2	0.2	0.2	85	-2.1	0	5	180	0.00	1008.368	0	0.000	0
20090209 19:35	0.2	0.2	0.2	85	-2.1	2	3	157	0.00	1008.266	0	0.000	0
20090209 19:40	0.2	0.2	0.2	85	-2.0	0	3	180	0.00	1008.165	0	0.000	0
20090209 19:45	0.2	0.2	0.2	84	-2.2	0	3	157	0.00	1007.894	0	0.000	0
20090209 19:50	0.3	0.3	0.3	84	-2.1	2	6	157	0.00	1007.792	0	0.000	0
20090209 19:55	0.3	0.3	0.3	84	-2.0	2	5	157	0.00	1007.758	0	0.000	0
20090209 20:00	0.3	0.3	0.3	84	-2.0	0	5	135	0.00	1007.690	0	0.000	0
20090209 20:05	0.3	0.3	0.3	84	-2.0	2	5	157	0.00	1007.623	0	0.000	0
20090209 20:10	0.4	0.4	0.4	84	-2.0	2	6	157	0.00	1007.589	0	0.000	0
20090209 20:15	0.4	0.4	0.4	83	-2.2	2	6	157	0.00	1007.453	0	0.000	0
20090209 20:20	0.4	0.4	0.4	83	-2.1	2	6	135	0.00	1007.487	0	0.000	0
20090209 20:25	0.5	0.5	0.5	83	-2.0	2	6	135	0.00	1007.420	0	0.000	0
20090209 20:30	0.6	0.6	0.6	82	-2.2	2	5	180	0.00	1007.420	0	0.000	0
20090209 20:35	0.6	0.6	0.6	82	-2.1	2	5	135	0.00	1007.352	0	0.000	0
20090209 20:40	0.6	0.6	0.6	82	-2.1	0	5	135	0.00	1007.352	0	0.000	0
20090209 20:45	0.7	0.7	0.7	81	-2.2	2	5	135	0.00	1007.284	0	0.000	0
20090209 20:50	0.8	0.8	0.8	81	-2.1	2	6	180	0.00	1007.216	0	0.000	0
20090209 20:55	0.8	0.8	0.8	80	-2.2	2	5	157	0.00	1007.115	0	0.000	0
20090209 21:00	0.9	0.9	0.9	80	-2.2	2	6	157	0.00	1007.013	0	0.000	0
20090209 21:05	0.8	0.8	0.8	80	-2.2	2	6	157	0.00	1006.878	0	0.000	0
20090209 21:10	0.8	0.8	0.8	80	-2.2	2	6	157	0.00	1006.675	0	0.000	0
20090209 21:15	0.8	0.8	0.8	80	-2.2	3	6	135	0.00	1006.539	0	0.000	0
20090209 21:20	0.8	0.8	0.8	80	-2.2	3	10	157	0.00	1006.404	0	0.000	0
20090209 21:25	0.8	0.8	0.8	80	-2.2	2	8	135	0.00	1006.370	0	0.000	0
20090209 21:30	0.8	0.8	0.8	81	-2.1	2	6	135	0.00	1006.201	0	0.000	0
20090209 21:35	0.8	0.8	0.8	81	-2.1	3	8	135	0.00	1006.065	0	0.000	0
20090209 21:40	0.7	0.7	0.7	81	-2.2	3	8	135	0.00	1005.963	0	0.000	0
20090209 21:45	0.7	0.7	0.7	82	-2.0	3	8	112	0.00	1005.828	0	0.000	0
20090209 21:50	0.7	0.7	0.7	82	-2.0	3	8	135	0.00	1005.794	0	0.000	0
20090209 21:55	0.7	0.7	0.7	82	-2.0	3	10	135	0.00	1005.625	0	0.000	0
20090209 22:00	0.6	0.6	0.6	82	-2.1	3	10	135	0.00	1005.523	0	0.000	0
20090209 22:05	0.6	0.6	0.6	82	-2.1	2	6	135	0.00	1005.354	0	0.000	0
20090209 22:10	0.6	0.6	0.6	83	-1.9	2	6	157	0.00	1005.354	0	0.000	0
20090209 22:15	0.6	0.6	0.6	83	-1.9	2	6	135	0.00	1005.218	0	0.000	0
20090209 22:20	0.6	0.6	0.6	83	-1.9	2	6	157	0.00	1005.117	0	0.000	0
20090209 22:25	0.6	0.6	0.6	83	-2.0	3	8	157	0.00	1005.185	0	0.000	0
20090209 22:30	0.6	0.6	0.6	83	-2.0	3	8	157	0.00	1005.015	0	0.000	0
20090209 22:35	0.6	0.6	0.6	83	-1.9	2	10	157	0.00	1004.914	0	0.000	0
20090209 22:40	0.7	0.7	0.7	82	-2.0	3	10	157	0.00	1004.914	0	0.000	0
20090209 22:45	0.7	0.7	0.7	82	-2.0	3	8	157	0.00	1005.049	0	0.000	0
20090209 22:50	0.8	0.8	0.8	82	-1.9	3	8	157	0.00	1004.948	0	0.000	0
20090209 22:55	0.8	0.8	0.8	81	-2.1	2	5	157	0.00	1004.948	0	0.000	0
20090209 23:00	0.8	0.8	0.8	81	-2.1	3	6	202	0.00	1004.914	0	0.000	0
20090209 23:05	0.8	0.8	0.8	81	-2.1	2	8	180	0.00	1004.778	0	0.000	0
20090209 23:10	0.8	0.8	0.8	81	-2.1	2	3	157	0.00	1004.609	0	0.000	0
20090209 23:15	0.9	0.9	0.9	81	-1.9	2	6	157	0.00	1004.643	0	0.000	0
20090209 23:20	0.9	0.9	0.9	81	-1.9	2	5	157	0.00	1004.575	0	0.000	0
20090209 23:25	1.0	1.0	1.0	80	-2.1	2	6	180	0.00	1004.643	0	0.000	0
20090209 23:30	1.0	1.0	1.0	80	-2.1	3	11	180	0.00	1004.541	0	0.000	0
20090209 23:35	0.9	0.9	0.9	81	-1.9	3	6	225	0.00	1004.473	0	0.000	0
20090209 23:40	0.9	0.9	0.9	81	-1.9	3	11	225	0.00	1004.541	0	0.000	0
20090209 23:45	0.9	0.9	0.9	80	-2.1	3	10	157	0.00	1004.473	0	0.000	0
20090209 23:50	0.9	0.9	0.9	81	-1.9	3	10	180	0.00	1004.372	0	0.000	0
20090209 23:55	0.9	0.9	0.9	81	-1.9	3	8	225	0.00	1004.372	0	0.000	0
20090209 24:00	0.9	0.9	0.9	82	-1.8	2	6	180	0.00	1004.203	0	0.000	0



Please note the license to use and transfer of this data:
http://creativecommons.org/licenses/by-nc-sa/3.0/deed.en

Bitte beachten sie die Lizenz zur Verwertung und Weitergabe der Daten:
http://creativecommons.org/licenses/by-nc-sa/3.0/deed.de

zurück zur Übersicht der Archivdaten (Monats und Tagesdaten)

Cookies helfen bei der Bereitstellung von Inhalten. Durch die Nutzung dieser Seiten erklärst du dich damit einverstanden, dass Cookies auf deinem Rechner gespeichert werden. Weitere Information